sensor_id;sensor_type;location;lat;lon;timestamp;temperature;humidity
17364;DHT22;8799;43.594;13.526;2023-02-08T00:01:11;15.60;99.90
17364;DHT22;8799;43.594;13.526;2023-02-08T00:03:40;15.60;99.90
17364;DHT22;8799;43.594;13.526;2023-02-08T00:06:08;15.60;99.90
17364;DHT22;8799;43.594;13.526;2023-02-08T00:08:37;15.60;99.90
17364;DHT22;8799;43.594;13.526;2023-02-08T00:11:07;15.60;99.90
17364;DHT22;8799;43.594;13.526;2023-02-08T00:13:36;15.60;99.90
17364;DHT22;8799;43.594;13.526;2023-02-08T00:16:06;15.60;99.90
17364;DHT22;8799;43.594;13.526;2023-02-08T00:18:34;15.60;99.90
17364;DHT22;8799;43.594;13.526;2023-02-08T00:21:06;15.60;99.90
17364;DHT22;8799;43.594;13.526;2023-02-08T00:23:35;15.60;99.90
17364;DHT22;8799;43.594;13.526;2023-02-08T00:26:05;15.50;99.90
17364;DHT22;8799;43.594;13.526;2023-02-08T00:28:34;15.50;99.90
17364;DHT22;8799;43.594;13.526;2023-02-08T00:31:01;15.60;99.90
17364;DHT22;8799;43.594;13.526;2023-02-08T00:33:29;15.60;99.90
17364;DHT22;8799;43.594;13.526;2023-02-08T00:35:58;15.50;99.90
17364;DHT22;8799;43.594;13.526;2023-02-08T00:38:26;15.50;99.90
17364;DHT22;8799;43.594;13.526;2023-02-08T00:40:54;15.50;99.90
17364;DHT22;8799;43.594;13.526;2023-02-08T00:43:23;15.50;99.90
17364;DHT22;8799;43.594;13.526;2023-02-08T00:46:00;15.50;99.90
17364;DHT22;8799;43.594;13.526;2023-02-08T00:48:28;15.50;99.90
17364;DHT22;8799;43.594;13.526;2023-02-08T00:50:57;15.50;99.90
17364;DHT22;8799;43.594;13.526;2023-02-08T00:53:26;15.50;99.90
17364;DHT22;8799;43.594;13.526;2023-02-08T00:55:53;15.40;99.90
17364;DHT22;8799;43.594;13.526;2023-02-08T00:58:23;15.40;99.90
17364;DHT22;8799;43.594;13.526;2023-02-08T01:00:52;15.50;99.90
17364;DHT22;8799;43.594;13.526;2023-02-08T01:03:21;15.50;99.90
17364;DHT22;8799;43.594;13.526;2023-02-08T01:05:49;15.50;99.90
17364;DHT22;8799;43.594;13.526;2023-02-08T01:08:18;15.50;99.90
17364;DHT22;8799;43.594;13.526;2023-02-08T01:10:46;15.40;99.90
17364;DHT22;8799;43.594;13.526;2023-02-08T01:13:14;15.40;99.90
17364;DHT22;8799;43.594;13.526;2023-02-08T01:15:44;15.40;99.90
17364;DHT22;8799;43.594;13.526;2023-02-08T01:18:12;15.50;99.90
17364;DHT22;8799;43.594;13.526;2023-02-08T01:20:40;15.50;99.90
17364;DHT22;8799;43.594;13.526;2023-02-08T01:23:08;15.50;99.90
17364;DHT22;8799;43.594;13.526;2023-02-08T01:25:36;15.40;99.90
17364;DHT22;8799;43.594;13.526;2023-02-08T01:28:04;15.50;99.90
17364;DHT22;8799;43.594;13.526;2023-02-08T01:30:32;15.50;99.90
17364;DHT22;8799;43.594;13.526;2023-02-08T01:33:02;15.40;99.90
17364;DHT22;8799;43.594;13.526;2023-02-08T01:35:30;15.40;99.90
17364;DHT22;8799;43.594;13.526;2023-02-08T01:37:58;15.40;99.90
17364;DHT22;8799;43.594;13.526;2023-02-08T01:40:26;15.40;99.90
17364;DHT22;8799;43.594;13.526;2023-02-08T01:42:54;15.40;99.90
17364;DHT22;8799;43.594;13.526;2023-02-08T01:45:24;15.40;99.90
17364;DHT22;8799;43.594;13.526;2023-02-08T01:47:59;15.40;99.90
17364;DHT22;8799;43.594;13.526;2023-02-08T01:50:35;15.40;99.90
17364;DHT22;8799;43.594;13.526;2023-02-08T01:53:07;15.30;99.90
17364;DHT22;8799;43.594;13.526;2023-02-08T01:55:39;15.30;99.90
17364;DHT22;8799;43.594;13.526;2023-02-08T01:58:10;15.40;99.90
17364;DHT22;8799;43.594;13.526;2023-02-08T02:00:39;15.40;99.90
17364;DHT22;8799;43.594;13.526;2023-02-08T02:03:07;15.40;99.90
17364;DHT22;8799;43.594;13.526;2023-02-08T02:05:41;15.30;99.90
17364;DHT22;8799;43.594;13.526;2023-02-08T02:08:10;15.30;99.90
17364;DHT22;8799;43.594;13.526;2023-02-08T02:10:40;15.30;99.90
17364;DHT22;8799;43.594;13.526;2023-02-08T02:13:10;15.40;99.90
17364;DHT22;8799;43.594;13.526;2023-02-08T02:15:38;15.30;99.90
17364;DHT22;8799;43.594;13.526;2023-02-08T02:18:07;15.30;99.90
17364;DHT22;8799;43.594;13.526;2023-02-08T02:20:46;15.30;99.90
17364;DHT22;8799;43.594;13.526;2023-02-08T02:23:55;15.30;99.90
17364;DHT22;8799;43.594;13.526;2023-02-08T02:33:07;15.30;99.90
17364;DHT22;8799;43.594;13.526;2023-02-08T02:35:43;15.30;99.90
17364;DHT22;8799;43.594;13.526;2023-02-08T02:38:17;15.20;99.90
17364;DHT22;8799;43.594;13.526;2023-02-08T02:40:52;15.20;99.90
17364;DHT22;8799;43.594;13.526;2023-02-08T02:43:28;15.20;99.90
17364;DHT22;8799;43.594;13.526;2023-02-08T02:46:23;15.20;99.90
17364;DHT22;8799;43.594;13.526;2023-02-08T02:48:58;15.20;99.90
17364;DHT22;8799;43.594;13.526;2023-02-08T02:51:35;15.20;99.90
17364;DHT22;8799;43.594;13.526;2023-02-08T02:54:09;15.20;99.90
17364;DHT22;8799;43.594;13.526;2023-02-08T02:56:40;15.20;99.90
17364;DHT22;8799;43.594;13.526;2023-02-08T02:59:11;15.20;99.90
17364;DHT22;8799;43.594;13.526;2023-02-08T03:01:42;15.20;99.90
17364;DHT22;8799;43.594;13.526;2023-02-08T03:04:15;15.20;99.90
17364;DHT22;8799;43.594;13.526;2023-02-08T03:06:56;15.20;99.90
17364;DHT22;8799;43.594;13.526;2023-02-08T03:09:46;15.20;99.90
17364;DHT22;8799;43.594;13.526;2023-02-08T03:12:30;15.20;99.90
17364;DHT22;8799;43.594;13.526;2023-02-08T03:15:09;15.20;99.90
17364;DHT22;8799;43.594;13.526;2023-02-08T03:17:53;15.20;99.90
17364;DHT22;8799;43.594;13.526;2023-02-08T03:20:29;15.20;99.90
17364;DHT22;8799;43.594;13.526;2023-02-08T03:23:03;15.10;99.90
17364;DHT22;8799;43.594;13.526;2023-02-08T03:25:36;15.10;99.90
17364;DHT22;8799;43.594;13.526;2023-02-08T03:28:13;15.10;99.90
17364;DHT22;8799;43.594;13.526;2023-02-08T03:30:48;15.10;99.90
17364;DHT22;8799;43.594;13.526;2023-02-08T03:33:22;15.10;99.90
17364;DHT22;8799;43.594;13.526;2023-02-08T03:35:58;15.10;99.90
17364;DHT22;8799;43.594;13.526;2023-02-08T03:38:31;15.10;99.90
17364;DHT22;8799;43.594;13.526;2023-02-08T03:41:03;15.10;99.90
17364;DHT22;8799;43.594;13.526;2023-02-08T03:43:36;15.10;99.90
17364;DHT22;8799;43.594;13.526;2023-02-08T03:46:07;15.10;99.90
17364;DHT22;8799;43.594;13.526;2023-02-08T03:48:39;15.10;99.90
17364;DHT22;8799;43.594;13.526;2023-02-08T03:51:09;15.10;99.90
17364;DHT22;8799;43.594;13.526;2023-02-08T03:53:38;15.00;99.90
17364;DHT22;8799;43.594;13.526;2023-02-08T03:56:11;15.00;99.90
17364;DHT22;8799;43.594;13.526;2023-02-08T03:58:42;15.00;99.90
17364;DHT22;8799;43.594;13.526;2023-02-08T04:01:15;15.00;99.90
17364;DHT22;8799;43.594;13.526;2023-02-08T04:03:45;15.00;99.90
17364;DHT22;8799;43.594;13.526;2023-02-08T04:06:16;15.00;99.90
17364;DHT22;8799;43.594;13.526;2023-02-08T04:08:44;15.00;99.90
17364;DHT22;8799;43.594;13.526;2023-02-08T04:11:11;15.00;99.90
17364;DHT22;8799;43.594;13.526;2023-02-08T04:13:39;15.00;99.90
17364;DHT22;8799;43.594;13.526;2023-02-08T04:16:08;15.00;99.90
17364;DHT22;8799;43.594;13.526;2023-02-08T04:18:37;15.00;99.90
17364;DHT22;8799;43.594;13.526;2023-02-08T04:21:06;15.00;99.90
17364;DHT22;8799;43.594;13.526;2023-02-08T04:23:35;15.00;99.90
17364;DHT22;8799;43.594;13.526;2023-02-08T04:26:03;15.00;99.90
17364;DHT22;8799;43.594;13.526;2023-02-08T04:28:32;15.00;99.90
17364;DHT22;8799;43.594;13.526;2023-02-08T04:31:00;15.00;99.90
17364;DHT22;8799;43.594;13.526;2023-02-08T04:33:28;15.00;99.90
17364;DHT22;8799;43.594;13.526;2023-02-08T04:35:56;14.90;99.90
17364;DHT22;8799;43.594;13.526;2023-02-08T04:38:24;14.90;99.90
17364;DHT22;8799;43.594;13.526;2023-02-08T04:40:54;14.90;99.90
17364;DHT22;8799;43.594;13.526;2023-02-08T04:43:22;14.90;99.90
17364;DHT22;8799;43.594;13.526;2023-02-08T04:45:50;14.90;99.90
17364;DHT22;8799;43.594;13.526;2023-02-08T04:48:18;14.90;99.90
17364;DHT22;8799;43.594;13.526;2023-02-08T04:50:46;14.90;99.90
17364;DHT22;8799;43.594;13.526;2023-02-08T04:53:13;14.90;99.90
17364;DHT22;8799;43.594;13.526;2023-02-08T04:55:41;14.90;99.90
17364;DHT22;8799;43.594;13.526;2023-02-08T04:58:11;14.90;99.90
17364;DHT22;8799;43.594;13.526;2023-02-08T05:00:39;14.90;99.90
17364;DHT22;8799;43.594;13.526;2023-02-08T05:03:07;14.90;99.90
17364;DHT22;8799;43.594;13.526;2023-02-08T05:05:35;14.90;99.90
17364;DHT22;8799;43.594;13.526;2023-02-08T05:08:02;14.90;99.90
17364;DHT22;8799;43.594;13.526;2023-02-08T05:10:30;14.90;99.90
17364;DHT22;8799;43.594;13.526;2023-02-08T05:12:58;14.90;99.90
17364;DHT22;8799;43.594;13.526;2023-02-08T05:15:28;14.80;99.90
17364;DHT22;8799;43.594;13.526;2023-02-08T05:17:56;14.90;99.90
17364;DHT22;8799;43.594;13.526;2023-02-08T05:20:23;14.90;99.90
17364;DHT22;8799;43.594;13.526;2023-02-08T05:22:51;14.90;99.90
17364;DHT22;8799;43.594;13.526;2023-02-08T05:25:19;14.90;99.90
17364;DHT22;8799;43.594;13.526;2023-02-08T05:27:47;14.80;99.90
17364;DHT22;8799;43.594;13.526;2023-02-08T05:30:15;14.80;99.90
17364;DHT22;8799;43.594;13.526;2023-02-08T05:32:45;14.80;99.90
17364;DHT22;8799;43.594;13.526;2023-02-08T05:35:13;14.80;99.90
17364;DHT22;8799;43.594;13.526;2023-02-08T05:37:41;14.80;99.90
17364;DHT22;8799;43.594;13.526;2023-02-08T05:40:10;14.80;99.90
17364;DHT22;8799;43.594;13.526;2023-02-08T05:42:38;14.80;99.90
17364;DHT22;8799;43.594;13.526;2023-02-08T05:45:07;14.80;99.90
17364;DHT22;8799;43.594;13.526;2023-02-08T05:47:35;14.80;99.90
17364;DHT22;8799;43.594;13.526;2023-02-08T05:50:05;14.80;99.90
17364;DHT22;8799;43.594;13.526;2023-02-08T05:52:34;14.80;99.90
17364;DHT22;8799;43.594;13.526;2023-02-08T05:55:03;14.70;99.90
17364;DHT22;8799;43.594;13.526;2023-02-08T05:57:33;14.70;99.90
17364;DHT22;8799;43.594;13.526;2023-02-08T06:00:02;14.70;99.90
17364;DHT22;8799;43.594;13.526;2023-02-08T06:02:31;14.70;99.90
17364;DHT22;8799;43.594;13.526;2023-02-08T06:04:59;14.70;99.90
17364;DHT22;8799;43.594;13.526;2023-02-08T06:07:29;14.70;99.90
17364;DHT22;8799;43.594;13.526;2023-02-08T06:09:57;14.70;99.90
17364;DHT22;8799;43.594;13.526;2023-02-08T06:12:25;14.70;99.90
17364;DHT22;8799;43.594;13.526;2023-02-08T06:14:53;14.70;99.90
17364;DHT22;8799;43.594;13.526;2023-02-08T06:17:21;14.70;99.90
17364;DHT22;8799;43.594;13.526;2023-02-08T06:19:49;14.70;99.90
17364;DHT22;8799;43.594;13.526;2023-02-08T06:22:21;14.80;99.90
17364;DHT22;8799;43.594;13.526;2023-02-08T06:24:51;14.80;99.90
17364;DHT22;8799;43.594;13.526;2023-02-08T06:27:20;14.80;99.90
17364;DHT22;8799;43.594;13.526;2023-02-08T06:29:48;14.90;99.90
17364;DHT22;8799;43.594;13.526;2023-02-08T06:32:16;14.80;99.90
17364;DHT22;8799;43.594;13.526;2023-02-08T06:34:44;14.90;99.90
17364;DHT22;8799;43.594;13.526;2023-02-08T06:37:12;14.90;99.90
17364;DHT22;8799;43.594;13.526;2023-02-08T06:39:40;14.90;99.90
17364;DHT22;8799;43.594;13.526;2023-02-08T06:42:11;14.90;99.90
17364;DHT22;8799;43.594;13.526;2023-02-08T06:44:39;14.90;99.90
17364;DHT22;8799;43.594;13.526;2023-02-08T06:47:06;14.90;99.90
17364;DHT22;8799;43.594;13.526;2023-02-08T06:49:34;14.90;99.90
17364;DHT22;8799;43.594;13.526;2023-02-08T06:52:02;14.90;99.90
17364;DHT22;8799;43.594;13.526;2023-02-08T06:54:30;14.90;99.90
17364;DHT22;8799;43.594;13.526;2023-02-08T06:56:58;14.90;99.90
17364;DHT22;8799;43.594;13.526;2023-02-08T06:59:28;14.80;99.90
17364;DHT22;8799;43.594;13.526;2023-02-08T07:01:56;14.80;99.90
17364;DHT22;8799;43.594;13.526;2023-02-08T07:04:25;14.80;99.90
17364;DHT22;8799;43.594;13.526;2023-02-08T07:06:53;14.80;99.90
17364;DHT22;8799;43.594;13.526;2023-02-08T07:09:20;14.80;99.90
17364;DHT22;8799;43.594;13.526;2023-02-08T07:11:48;14.80;99.90
17364;DHT22;8799;43.594;13.526;2023-02-08T07:14:16;14.80;99.90
17364;DHT22;8799;43.594;13.526;2023-02-08T07:16:46;14.80;99.90
17364;DHT22;8799;43.594;13.526;2023-02-08T07:19:14;14.80;99.90
17364;DHT22;8799;43.594;13.526;2023-02-08T07:21:42;14.80;99.90
17364;DHT22;8799;43.594;13.526;2023-02-08T07:24:10;14.70;99.90
17364;DHT22;8799;43.594;13.526;2023-02-08T07:26:38;14.80;99.90
17364;DHT22;8799;43.594;13.526;2023-02-08T07:29:06;14.70;99.90
17364;DHT22;8799;43.594;13.526;2023-02-08T07:31:34;14.80;99.90
17364;DHT22;8799;43.594;13.526;2023-02-08T07:34:04;14.70;99.90
17364;DHT22;8799;43.594;13.526;2023-02-08T07:36:32;14.70;99.90
17364;DHT22;8799;43.594;13.526;2023-02-08T07:39:00;14.70;99.90
17364;DHT22;8799;43.594;13.526;2023-02-08T07:41:29;14.70;99.90
17364;DHT22;8799;43.594;13.526;2023-02-08T07:43:59;14.70;99.90
17364;DHT22;8799;43.594;13.526;2023-02-08T07:46:27;14.70;99.90
17364;DHT22;8799;43.594;13.526;2023-02-08T07:48:55;14.70;99.90
17364;DHT22;8799;43.594;13.526;2023-02-08T07:51:24;14.70;99.90
17364;DHT22;8799;43.594;13.526;2023-02-08T07:53:53;14.70;99.90
17364;DHT22;8799;43.594;13.526;2023-02-08T07:56:20;14.70;99.90
17364;DHT22;8799;43.594;13.526;2023-02-08T07:58:48;14.70;99.90
17364;DHT22;8799;43.594;13.526;2023-02-08T08:01:16;14.70;99.90
17364;DHT22;8799;43.594;13.526;2023-02-08T08:03:44;14.60;99.90
17364;DHT22;8799;43.594;13.526;2023-02-08T08:06:12;14.70;99.90
17364;DHT22;8799;43.594;13.526;2023-02-08T08:08:42;14.70;99.90
17364;DHT22;8799;43.594;13.526;2023-02-08T08:11:12;14.60;99.80
17364;DHT22;8799;43.594;13.526;2023-02-08T08:13:40;14.60;99.70
17364;DHT22;8799;43.594;13.526;2023-02-08T08:16:09;14.60;99.60
17364;DHT22;8799;43.594;13.526;2023-02-08T08:18:38;14.60;99.60
17364;DHT22;8799;43.594;13.526;2023-02-08T08:21:05;14.60;99.50
17364;DHT22;8799;43.594;13.526;2023-02-08T08:23:33;14.60;99.50
17364;DHT22;8799;43.594;13.526;2023-02-08T08:26:07;14.60;99.40
17364;DHT22;8799;43.594;13.526;2023-02-08T08:28:35;14.60;99.30
17364;DHT22;8799;43.594;13.526;2023-02-08T08:31:09;14.60;99.30
17364;DHT22;8799;43.594;13.526;2023-02-08T08:33:37;14.60;99.20
17364;DHT22;8799;43.594;13.526;2023-02-08T08:36:06;14.60;99.20
17364;DHT22;8799;43.594;13.526;2023-02-08T08:38:35;14.60;99.10
17364;DHT22;8799;43.594;13.526;2023-02-08T08:41:07;14.60;99.10
17364;DHT22;8799;43.594;13.526;2023-02-08T08:43:35;14.60;99.10
17364;DHT22;8799;43.594;13.526;2023-02-08T08:46:05;14.60;98.90
17364;DHT22;8799;43.594;13.526;2023-02-08T08:48:33;14.60;98.90
17364;DHT22;8799;43.594;13.526;2023-02-08T08:51:01;14.60;98.90
17364;DHT22;8799;43.594;13.526;2023-02-08T08:53:30;14.50;98.80
17364;DHT22;8799;43.594;13.526;2023-02-08T08:55:58;14.50;98.70
17364;DHT22;8799;43.594;13.526;2023-02-08T08:58:27;14.50;98.70
17364;DHT22;8799;43.594;13.526;2023-02-08T09:00:55;14.50;98.70
17364;DHT22;8799;43.594;13.526;2023-02-08T09:03:24;14.50;98.50
17364;DHT22;8799;43.594;13.526;2023-02-08T09:05:52;14.50;98.50
17364;DHT22;8799;43.594;13.526;2023-02-08T09:08:20;14.50;98.50
17364;DHT22;8799;43.594;13.526;2023-02-08T09:10:48;14.50;98.40
17364;DHT22;8799;43.594;13.526;2023-02-08T09:13:16;14.50;98.40
17364;DHT22;8799;43.594;13.526;2023-02-08T09:15:48;14.50;98.30
17364;DHT22;8799;43.594;13.526;2023-02-08T09:18:16;14.50;98.30
17364;DHT22;8799;43.594;13.526;2023-02-08T09:20:44;14.50;98.20
17364;DHT22;8799;43.594;13.526;2023-02-08T09:23:12;14.50;98.20
17364;DHT22;8799;43.594;13.526;2023-02-08T09:25:39;14.50;98.20
17364;DHT22;8799;43.594;13.526;2023-02-08T09:28:07;14.50;98.10
17364;DHT22;8799;43.594;13.526;2023-02-08T09:30:36;14.50;98.00
17364;DHT22;8799;43.594;13.526;2023-02-08T09:33:06;14.40;97.90
17364;DHT22;8799;43.594;13.526;2023-02-08T09:35:34;14.40;97.90
17364;DHT22;8799;43.594;13.526;2023-02-08T09:38:02;14.40;97.80
17364;DHT22;8799;43.594;13.526;2023-02-08T09:40:37;14.40;97.70
17364;DHT22;8799;43.594;13.526;2023-02-08T09:43:09;14.40;97.80
17364;DHT22;8799;43.594;13.526;2023-02-08T09:45:46;14.40;97.70
17364;DHT22;8799;43.594;13.526;2023-02-08T09:48:20;14.30;97.70
17364;DHT22;8799;43.594;13.526;2023-02-08T09:50:53;14.40;97.70
17364;DHT22;8799;43.594;13.526;2023-02-08T09:53:27;14.30;97.70
17364;DHT22;8799;43.594;13.526;2023-02-08T09:55:59;14.30;97.70
17364;DHT22;8799;43.594;13.526;2023-02-08T09:58:32;14.30;97.60
17364;DHT22;8799;43.594;13.526;2023-02-08T10:01:01;14.40;97.50
17364;DHT22;8799;43.594;13.526;2023-02-08T10:03:36;14.30;97.50
17364;DHT22;8799;43.594;13.526;2023-02-08T10:06:06;14.30;97.40
17364;DHT22;8799;43.594;13.526;2023-02-08T10:08:34;14.30;97.40
17364;DHT22;8799;43.594;13.526;2023-02-08T10:11:14;14.30;97.30
17364;DHT22;8799;43.594;13.526;2023-02-08T10:13:59;14.30;97.30
17364;DHT22;8799;43.594;13.526;2023-02-08T10:16:48;14.30;97.20
17364;DHT22;8799;43.594;13.526;2023-02-08T10:19:30;14.30;97.20
17364;DHT22;8799;43.594;13.526;2023-02-08T10:22:10;14.30;97.20
17364;DHT22;8799;43.594;13.526;2023-02-08T10:24:54;14.30;97.20
17364;DHT22;8799;43.594;13.526;2023-02-08T10:27:34;14.30;97.10
17364;DHT22;8799;43.594;13.526;2023-02-08T10:30:23;14.20;96.90
17364;DHT22;8799;43.594;13.526;2023-02-08T10:32:58;14.30;97.10
17364;DHT22;8799;43.594;13.526;2023-02-08T10:35:30;14.20;96.80
17364;DHT22;8799;43.594;13.526;2023-02-08T10:38:23;14.20;96.70
17364;DHT22;8799;43.594;13.526;2023-02-08T10:40:53;14.20;96.70
17364;DHT22;8799;43.594;13.526;2023-02-08T10:43:30;14.20;96.80
17364;DHT22;8799;43.594;13.526;2023-02-08T10:46:03;14.20;96.80
17364;DHT22;8799;43.594;13.526;2023-02-08T10:48:51;14.20;96.80
17364;DHT22;8799;43.594;13.526;2023-02-08T10:51:25;14.20;96.90
17364;DHT22;8799;43.594;13.526;2023-02-08T10:53:54;14.20;96.80
17364;DHT22;8799;43.594;13.526;2023-02-08T10:56:34;14.20;96.80
17364;DHT22;8799;43.594;13.526;2023-02-08T10:59:11;14.20;96.80
17364;DHT22;8799;43.594;13.526;2023-02-08T11:01:41;14.20;96.80
17364;DHT22;8799;43.594;13.526;2023-02-08T11:04:12;14.20;96.90
17364;DHT22;8799;43.594;13.526;2023-02-08T11:06:43;14.20;96.80
17364;DHT22;8799;43.594;13.526;2023-02-08T11:09:24;14.10;96.80
17364;DHT22;8799;43.594;13.526;2023-02-08T11:11:52;14.10;96.80
17364;DHT22;8799;43.594;13.526;2023-02-08T11:14:25;14.10;96.70
17364;DHT22;8799;43.594;13.526;2023-02-08T11:16:55;14.10;96.80
17364;DHT22;8799;43.594;13.526;2023-02-08T11:19:31;14.10;96.80
17364;DHT22;8799;43.594;13.526;2023-02-08T11:22:02;14.10;96.80
17364;DHT22;8799;43.594;13.526;2023-02-08T11:24:33;14.10;96.80
17364;DHT22;8799;43.594;13.526;2023-02-08T11:27:15;14.10;96.80
17364;DHT22;8799;43.594;13.526;2023-02-08T11:29:43;14.10;96.80
17364;DHT22;8799;43.594;13.526;2023-02-08T11:32:16;14.10;96.80
17364;DHT22;8799;43.594;13.526;2023-02-08T11:34:44;14.10;96.80
17364;DHT22;8799;43.594;13.526;2023-02-08T11:37:16;14.00;96.60
17364;DHT22;8799;43.594;13.526;2023-02-08T11:39:49;14.10;96.70
17364;DHT22;8799;43.594;13.526;2023-02-08T11:42:21;14.10;96.80
17364;DHT22;8799;43.594;13.526;2023-02-08T11:44:50;14.00;96.70
17364;DHT22;8799;43.594;13.526;2023-02-08T11:47:24;14.00;96.60
17364;DHT22;8799;43.594;13.526;2023-02-08T11:49:53;14.00;96.60
17364;DHT22;8799;43.594;13.526;2023-02-08T11:52:25;14.00;96.60
17364;DHT22;8799;43.594;13.526;2023-02-08T11:55:10;14.00;96.70
17364;DHT22;8799;43.594;13.526;2023-02-08T11:57:51;14.00;96.70
17364;DHT22;8799;43.594;13.526;2023-02-08T12:00:22;14.00;96.70
17364;DHT22;8799;43.594;13.526;2023-02-08T12:02:54;14.00;96.70
17364;DHT22;8799;43.594;13.526;2023-02-08T12:05:31;13.90;96.70
17364;DHT22;8799;43.594;13.526;2023-02-08T12:08:10;13.90;96.70
17364;DHT22;8799;43.594;13.526;2023-02-08T12:11:05;13.90;96.80
17364;DHT22;8799;43.594;13.526;2023-02-08T12:14:00;13.90;96.70
17364;DHT22;8799;43.594;13.526;2023-02-08T12:16:46;13.90;96.70
17364;DHT22;8799;43.594;13.526;2023-02-08T12:19:30;13.90;96.70
17364;DHT22;8799;43.594;13.526;2023-02-08T12:22:05;13.90;96.80
17364;DHT22;8799;43.594;13.526;2023-02-08T12:24:44;13.90;96.80
17364;DHT22;8799;43.594;13.526;2023-02-08T12:27:25;13.90;96.80
17364;DHT22;8799;43.594;13.526;2023-02-08T12:29:59;13.90;96.80
17364;DHT22;8799;43.594;13.526;2023-02-08T12:36:00;13.80;96.70
17364;DHT22;8799;43.594;13.526;2023-02-08T12:38:48;13.80;96.70
17364;DHT22;8799;43.594;13.526;2023-02-08T12:41:42;13.80;96.70
17364;DHT22;8799;43.594;13.526;2023-02-08T12:44:23;13.80;96.70
17364;DHT22;8799;43.594;13.526;2023-02-08T12:47:00;13.80;96.80
17364;DHT22;8799;43.594;13.526;2023-02-08T12:49:45;13.80;96.80
17364;DHT22;8799;43.594;13.526;2023-02-08T12:52:25;13.80;96.80
17364;DHT22;8799;43.594;13.526;2023-02-08T12:54:59;13.70;96.80
17364;DHT22;8799;43.594;13.526;2023-02-08T12:57:30;13.80;96.80
17364;DHT22;8799;43.594;13.526;2023-02-08T13:00:03;13.80;96.80
17364;DHT22;8799;43.594;13.526;2023-02-08T13:02:34;13.80;96.80
17364;DHT22;8799;43.594;13.526;2023-02-08T13:05:14;13.80;96.80
17364;DHT22;8799;43.594;13.526;2023-02-08T13:07:44;13.70;96.90
17364;DHT22;8799;43.594;13.526;2023-02-08T13:10:19;13.70;96.90
17364;DHT22;8799;43.594;13.526;2023-02-08T13:12:54;13.70;96.90
17364;DHT22;8799;43.594;13.526;2023-02-08T13:15:26;13.70;96.90
17364;DHT22;8799;43.594;13.526;2023-02-08T13:17:58;13.70;96.90
17364;DHT22;8799;43.594;13.526;2023-02-08T13:20:37;13.70;96.90
17364;DHT22;8799;43.594;13.526;2023-02-08T13:23:14;13.70;96.90
17364;DHT22;8799;43.594;13.526;2023-02-08T13:25:43;13.60;96.90
17364;DHT22;8799;43.594;13.526;2023-02-08T13:28:18;13.70;97.00
17364;DHT22;8799;43.594;13.526;2023-02-08T13:30:53;13.70;97.10
17364;DHT22;8799;43.594;13.526;2023-02-08T13:33:33;13.70;97.10
17364;DHT22;8799;43.594;13.526;2023-02-08T13:36:03;13.70;97.20
17364;DHT22;8799;43.594;13.526;2023-02-08T13:38:33;13.70;97.30
17364;DHT22;8799;43.594;13.526;2023-02-08T13:41:07;13.70;97.40
17364;DHT22;8799;43.594;13.526;2023-02-08T13:43:45;13.70;97.50
17364;DHT22;8799;43.594;13.526;2023-02-08T13:46:16;13.70;97.60
17364;DHT22;8799;43.594;13.526;2023-02-08T13:48:47;13.70;97.60
17364;DHT22;8799;43.594;13.526;2023-02-08T13:54:29;13.70;97.70
17364;DHT22;8799;43.594;13.526;2023-02-08T13:56:56;13.70;97.70
17364;DHT22;8799;43.594;13.526;2023-02-08T13:59:36;13.70;97.70
17364;DHT22;8799;43.594;13.526;2023-02-08T14:02:25;13.70;97.70
17364;DHT22;8799;43.594;13.526;2023-02-08T14:04:58;13.70;97.70
17364;DHT22;8799;43.594;13.526;2023-02-08T14:07:46;13.70;97.80
17364;DHT22;8799;43.594;13.526;2023-02-08T14:10:22;13.70;97.80
17364;DHT22;8799;43.594;13.526;2023-02-08T14:12:59;13.80;97.80
17364;DHT22;8799;43.594;13.526;2023-02-08T14:15:35;13.80;97.80
17364;DHT22;8799;43.594;13.526;2023-02-08T14:18:18;13.80;97.80
17364;DHT22;8799;43.594;13.526;2023-02-08T14:20:59;13.80;97.80
17364;DHT22;8799;43.594;13.526;2023-02-08T14:23:29;13.80;97.90
17364;DHT22;8799;43.594;13.526;2023-02-08T14:26:02;13.80;97.90
17364;DHT22;8799;43.594;13.526;2023-02-08T14:28:35;13.80;97.90
17364;DHT22;8799;43.594;13.526;2023-02-08T14:31:08;13.80;97.80
17364;DHT22;8799;43.594;13.526;2023-02-08T14:33:39;13.80;97.80
17364;DHT22;8799;43.594;13.526;2023-02-08T14:36:23;13.80;97.80
17364;DHT22;8799;43.594;13.526;2023-02-08T14:39:06;13.80;97.80
17364;DHT22;8799;43.594;13.526;2023-02-08T14:41:47;13.80;97.80
17364;DHT22;8799;43.594;13.526;2023-02-08T14:47:55;13.80;97.80
17364;DHT22;8799;43.594;13.526;2023-02-08T14:50:30;13.80;97.90
17364;DHT22;8799;43.594;13.526;2023-02-08T14:53:13;13.80;97.80
17364;DHT22;8799;43.594;13.526;2023-02-08T14:55:48;13.80;97.80
17364;DHT22;8799;43.594;13.526;2023-02-08T14:58:27;13.80;97.90
17364;DHT22;8799;43.594;13.526;2023-02-08T15:00:59;13.80;97.90
17364;DHT22;8799;43.594;13.526;2023-02-08T15:03:30;13.80;97.90
17364;DHT22;8799;43.594;13.526;2023-02-08T15:06:38;13.80;97.90
17364;DHT22;8799;43.594;13.526;2023-02-08T15:09:17;13.80;98.00
17364;DHT22;8799;43.594;13.526;2023-02-08T15:11:58;13.20;97.70
17364;DHT22;8799;43.594;13.526;2023-02-08T15:14:27;13.80;98.00
17364;DHT22;8799;43.594;13.526;2023-02-08T15:16:56;13.80;98.00
17364;DHT22;8799;43.594;13.526;2023-02-08T15:19:28;13.90;98.10
17364;DHT22;8799;43.594;13.526;2023-02-08T15:22:15;13.80;98.10
17364;DHT22;8799;43.594;13.526;2023-02-08T15:24:50;13.80;98.10
17364;DHT22;8799;43.594;13.526;2023-02-08T15:27:22;13.90;98.10
17364;DHT22;8799;43.594;13.526;2023-02-08T15:29:51;13.90;98.20
17364;DHT22;8799;43.594;13.526;2023-02-08T15:32:21;13.80;98.10
17364;DHT22;8799;43.594;13.526;2023-02-08T15:34:53;13.90;98.20
17364;DHT22;8799;43.594;13.526;2023-02-08T15:37:22;13.90;98.20
17364;DHT22;8799;43.594;13.526;2023-02-08T15:39:51;13.80;98.10
17364;DHT22;8799;43.594;13.526;2023-02-08T15:42:22;13.80;98.10
17364;DHT22;8799;43.594;13.526;2023-02-08T15:44:52;13.80;98.20
17364;DHT22;8799;43.594;13.526;2023-02-08T15:47:24;13.80;98.10
17364;DHT22;8799;43.594;13.526;2023-02-08T15:49:55;13.80;98.20
17364;DHT22;8799;43.594;13.526;2023-02-08T15:52:27;13.80;98.10
17364;DHT22;8799;43.594;13.526;2023-02-08T15:54:56;13.80;98.20
17364;DHT22;8799;43.594;13.526;2023-02-08T15:57:32;13.80;98.20
17364;DHT22;8799;43.594;13.526;2023-02-08T16:00:04;13.80;98.20
17364;DHT22;8799;43.594;13.526;2023-02-08T16:02:33;13.80;98.30
17364;DHT22;8799;43.594;13.526;2023-02-08T16:05:17;13.80;98.40
17364;DHT22;8799;43.594;13.526;2023-02-08T16:07:46;13.80;98.40
17364;DHT22;8799;43.594;13.526;2023-02-08T16:10:22;13.80;98.40
17364;DHT22;8799;43.594;13.526;2023-02-08T16:12:53;13.80;98.40
17364;DHT22;8799;43.594;13.526;2023-02-08T16:15:41;13.80;98.40
17364;DHT22;8799;43.594;13.526;2023-02-08T16:18:32;13.80;98.50